createdAt,value
2022-11-08T00:01:53.054Z,99485.50
2022-11-08T00:04:24.978Z,99483.72
2022-11-08T00:07:15.010Z,99477.75
2022-11-08T00:10:05.074Z,99479.06
2022-11-08T00:12:55.635Z,99483.38
2022-11-08T00:15:27.332Z,99478.41
2022-11-08T00:17:58.972Z,99480.38
2022-11-08T00:20:30.543Z,99478.88
2022-11-08T00:23:02.179Z,99479.88
2022-11-08T00:25:33.776Z,99475.41
2022-11-08T00:28:05.412Z,99480.38
2022-11-08T00:30:36.984Z,99475.75
2022-11-08T00:33:08.729Z,99477.25
2022-11-08T00:35:40.288Z,99477.91
2022-11-08T00:38:11.947Z,99478.25
2022-11-08T00:40:43.523Z,99475.75
2022-11-08T00:43:15.138Z,99470.97
2022-11-08T00:45:46.712Z,99471.63
2022-11-08T00:48:18.602Z,99474.91
2022-11-08T00:50:50.508Z,99480.84
2022-11-08T00:53:22.406Z,99486.91
2022-11-08T00:56:05.636Z,99473.91
2022-11-08T00:58:37.436Z,99472.25
2022-11-08T01:01:17.424Z,99469.94
2022-11-08T01:03:49.344Z,99472.75
2022-11-08T01:06:22.583Z,99469.59
2022-11-08T01:08:56.220Z,99467.28
2022-11-08T01:11:28.322Z,99467.78
2022-11-08T01:14:01.415Z,99467.41
2022-11-08T01:16:33.876Z,99463.78
2022-11-08T01:19:05.581Z,99456.31
2022-11-08T01:21:37.460Z,99455.13
2022-11-08T01:24:09.191Z,99447.56
2022-11-08T01:26:40.757Z,99444.88
2022-11-08T01:29:12.373Z,99441.91
2022-11-08T01:31:44.047Z,99435.44
2022-11-08T01:34:15.679Z,99439.91
2022-11-08T01:36:47.254Z,99439.22
2022-11-08T01:39:18.864Z,99441.56
2022-11-08T01:41:50.432Z,99436.28
2022-11-08T01:44:22.905Z,99446.97
2022-11-08T01:46:54.763Z,99437.75
2022-11-08T01:49:40.093Z,99435.66
2022-11-08T01:52:27.867Z,99434.13
2022-11-08T01:55:23.079Z,99431.84
2022-11-08T01:58:06.497Z,99423.25
2022-11-08T02:00:39.675Z,99425.25
2022-11-08T02:03:14.106Z,99426.38
2022-11-08T02:05:46.393Z,99428.50
2022-11-08T02:08:26.561Z,99420.91
2022-11-08T02:10:58.316Z,99419.88
2022-11-08T02:13:31.871Z,99410.78
2022-11-08T02:16:10.331Z,99417.38
2022-11-08T02:18:44.151Z,99417.16
2022-11-08T02:21:28.347Z,99420.13
2022-11-08T02:24:02.886Z,99410.56
2022-11-08T02:26:35.851Z,99413.34
2022-11-08T02:29:41.143Z,99409.03
2022-11-08T02:32:12.787Z,99402.53
2022-11-08T02:34:52.775Z,99398.28
2022-11-08T02:37:26.767Z,99397.13
2022-11-08T02:39:58.428Z,99395.66
2022-11-08T02:42:30.072Z,99395.94
2022-11-08T02:45:01.655Z,99390.53
2022-11-08T02:47:33.294Z,99385.94
2022-11-08T02:50:05.384Z,99392.19
2022-11-08T02:52:36.978Z,99387.91
2022-11-08T02:55:08.596Z,99390.66
2022-11-08T02:57:40.206Z,99391.16
2022-11-08T03:00:12.572Z,99387.84
2022-11-08T03:02:44.197Z,99388.66
2022-11-08T03:05:15.828Z,99388.00
2022-11-08T03:07:47.860Z,99382.88
2022-11-08T03:10:19.713Z,99389.13
2022-11-08T03:13:03.035Z,99382.06
2022-11-08T03:15:34.633Z,99384.69
2022-11-08T03:18:06.391Z,99390.66
2022-11-08T03:20:37.977Z,99392.59
2022-11-08T03:23:09.674Z,99388.31
2022-11-08T03:25:41.277Z,99389.97
2022-11-08T03:28:12.953Z,99394.41
2022-11-08T03:30:44.638Z,99399.81
2022-11-08T03:33:16.235Z,99402.44
2022-11-08T03:35:49.056Z,99403.13
2022-11-08T03:38:20.966Z,99396.06
2022-11-08T03:40:52.548Z,99399.81
2022-11-08T03:43:24.651Z,99398.31
2022-11-08T03:45:56.269Z,99398.47
2022-11-08T03:48:29.863Z,99406.00
2022-11-08T03:51:01.464Z,99405.78
2022-11-08T03:53:33.063Z,99406.09
2022-11-08T03:56:04.947Z,99399.69
2022-11-08T03:58:36.600Z,99407.66
2022-11-08T04:01:09.550Z,99407.13
2022-11-08T04:03:41.261Z,99407.13
2022-11-08T04:06:12.836Z,99408.63
2022-11-08T04:08:44.465Z,99407.50
2022-11-08T04:11:34.634Z,99405.53
2022-11-08T04:14:24.877Z,99407.88
2022-11-08T04:16:58.744Z,99414.81
2022-11-08T04:19:49.359Z,99407.75
2022-11-08T04:22:20.911Z,99408.56
2022-11-08T04:24:53.803Z,99415.50
2022-11-08T04:27:25.417Z,99401.50
2022-11-08T04:29:57.110Z,99399.00
2022-11-08T04:32:28.686Z,99394.88
2022-11-08T04:35:00.285Z,99397.50
2022-11-08T04:37:31.892Z,99402.22
2022-11-08T04:40:06.699Z,99392.53
2022-11-08T04:42:38.565Z,99394.88
2022-11-08T04:45:10.956Z,99390.44
2022-11-08T04:47:48.394Z,99394.72
2022-11-08T04:50:20.289Z,99382.25
2022-11-08T04:52:53.579Z,99384.06
2022-11-08T04:55:25.308Z,99379.63
2022-11-08T04:57:58.960Z,99381.41
2022-11-08T05:00:30.560Z,99389.47
2022-11-08T05:03:02.901Z,99394.88
2022-11-08T05:05:34.739Z,99390.72
2022-11-08T05:08:06.514Z,99387.72
2022-11-08T05:10:38.103Z,99391.81
2022-11-08T05:13:09.791Z,99389.47
2022-11-08T05:15:43.372Z,99395.88
2022-11-08T05:18:16.473Z,99391.22
2022-11-08T05:21:12.662Z,99402.34
2022-11-08T05:23:45.563Z,99401.97
2022-11-08T05:26:18.936Z,99400.44
2022-11-08T05:28:53.876Z,99403.09
2022-11-08T05:31:25.605Z,99402.56
2022-11-08T05:33:57.350Z,99402.72
2022-11-08T05:36:29.191Z,99404.66
2022-11-08T05:39:03.893Z,99403.03
2022-11-08T05:41:35.477Z,99399.72
2022-11-08T05:44:07.099Z,99403.03
2022-11-08T05:46:38.693Z,99404.38
2022-11-08T05:49:10.277Z,99399.63
2022-11-08T05:51:41.834Z,99401.75
2022-11-08T05:54:13.531Z,99392.66
2022-11-08T05:56:45.175Z,99406.69
2022-11-08T05:59:16.859Z,99405.03
2022-11-08T06:01:48.482Z,99408.34
2022-11-08T06:04:20.107Z,99409.53
2022-11-08T06:06:51.744Z,99409.25
2022-11-08T06:09:23.464Z,99410.91
2022-11-08T06:11:55.063Z,99415.03
2022-11-08T06:14:26.632Z,99419.19
2022-11-08T06:16:58.221Z,99428.56
2022-11-08T06:19:30.152Z,99415.94
2022-11-08T06:22:01.824Z,99413.97
2022-11-08T06:24:33.362Z,99417.16
2022-11-08T06:27:04.992Z,99413.09
2022-11-08T06:29:36.685Z,99413.69
2022-11-08T06:32:10.427Z,99414.03
2022-11-08T06:34:42.072Z,99403.06
2022-11-08T06:37:14.097Z,99403.38
2022-11-08T06:39:45.775Z,99409.06
2022-11-08T06:42:17.432Z,99411.22
2022-11-08T06:44:52.200Z,99405.84
2022-11-08T06:47:26.824Z,99404.03
2022-11-08T06:49:58.239Z,99392.09
2022-11-08T06:52:29.850Z,99391.00
2022-11-08T06:55:01.459Z,99395.31
2022-11-08T06:57:33.601Z,99393.59
2022-11-08T07:00:05.746Z,99398.78
2022-11-08T07:02:37.476Z,99397.34
2022-11-08T07:05:09.244Z,99400.41
2022-11-08T07:07:40.945Z,99395.88
2022-11-08T07:10:13.997Z,99388.13
2022-11-08T07:12:45.886Z,99393.47
2022-11-08T07:15:18.672Z,99393.41
2022-11-08T07:17:50.319Z,99391.09
2022-11-08T07:20:22.377Z,99392.41
2022-11-08T07:22:57.556Z,99385.47
2022-11-08T07:25:30.511Z,99382.72
2022-11-08T07:28:04.557Z,99381.41
2022-11-08T07:30:36.246Z,99385.53
2022-11-08T07:33:07.837Z,99387.53
2022-11-08T07:35:39.773Z,99387.13
2022-11-08T07:38:11.354Z,99390.91
2022-11-08T07:40:43.241Z,99387.34
2022-11-08T07:43:15.131Z,99379.97
2022-11-08T07:45:55.450Z,99377.38
2022-11-08T07:48:28.955Z,99376.16
2022-11-08T07:51:00.578Z,99375.84
2022-11-08T07:53:32.238Z,99372.97
2022-11-08T07:56:03.955Z,99374.88
2022-11-08T07:58:35.842Z,99378.22
2022-11-08T08:01:07.582Z,99376.69
2022-11-08T08:03:39.243Z,99377.03
2022-11-08T08:06:11.056Z,99377.38
2022-11-08T08:08:42.792Z,99374.88
2022-11-08T08:11:15.158Z,99371.13
2022-11-08T08:13:46.744Z,99363.25
2022-11-08T08:16:18.772Z,99369.63
2022-11-08T08:18:56.455Z,99369.09
2022-11-08T08:21:28.485Z,99370.44
2022-11-08T08:24:00.091Z,99359.28
2022-11-08T08:26:31.844Z,99356.28
2022-11-08T08:29:03.496Z,99351.56
2022-11-08T08:31:35.067Z,99356.56
2022-11-08T08:34:09.561Z,99349.34
2022-11-08T08:36:42.051Z,99340.63
2022-11-08T08:39:13.872Z,99338.28
2022-11-08T08:41:45.440Z,99339.38
2022-11-08T08:44:17.161Z,99333.16
2022-11-08T08:46:49.017Z,99342.25
2022-11-08T08:49:21.561Z,99346.91
2022-11-08T08:51:53.179Z,99345.00
2022-11-08T08:54:29.338Z,99350.50
2022-11-08T08:57:01.174Z,99354.28
2022-11-08T09:02:24.358Z,99358.41
2022-11-08T09:04:56.691Z,99358.19
2022-11-08T09:07:28.265Z,99352.44
2022-11-08T09:10:01.060Z,99356.66
2022-11-08T09:12:33.044Z,99349.13
2022-11-08T09:15:06.731Z,99343.13
2022-11-08T09:17:38.332Z,99344.44
2022-11-08T09:20:11.083Z,99343.25
2022-11-08T09:22:42.709Z,99339.25
2022-11-08T09:25:14.443Z,99341.94
2022-11-08T09:27:46.384Z,99344.72
2022-11-08T09:30:18.047Z,99337.19
2022-11-08T09:33:02.131Z,99335.78
2022-11-08T09:35:34.296Z,99341.78
2022-11-08T09:38:05.886Z,99346.44
2022-11-08T09:40:42.943Z,99347.22
2022-11-08T09:43:46.384Z,99339.47
2022-11-08T09:46:44.184Z,99341.47
2022-11-08T09:49:22.642Z,99333.09
2022-11-08T09:51:54.481Z,99335.38
2022-11-08T09:54:40.668Z,99342.16
2022-11-08T09:57:19.720Z,99339.50
2022-11-08T09:59:58.556Z,99326.88
2022-11-08T10:02:34.542Z,99320.09
2022-11-08T10:05:12.703Z,99316.25
2022-11-08T10:07:57.809Z,99322.19
2022-11-08T10:11:12.301Z,99317.66
2022-11-08T10:13:57.554Z,99315.78
2022-11-08T10:17:07.153Z,99319.84
2022-11-08T10:20:16.384Z,99311.44
2022-11-08T10:23:26.726Z,99315.53
2022-11-08T10:26:08.239Z,99322.03
2022-11-08T10:29:07.247Z,99311.31
2022-11-08T10:31:41.651Z,99312.41
2022-11-08T10:34:17.857Z,99303.03
2022-11-08T10:36:54.668Z,99297.63
2022-11-08T10:39:36.524Z,99300.91
2022-11-08T10:42:37.412Z,99295.41
2022-11-08T10:45:10.325Z,99284.78
2022-11-08T10:47:46.143Z,99283.06
2022-11-08T10:50:22.627Z,99280.47
2022-11-08T10:52:59.579Z,99274.28
2022-11-08T10:55:39.214Z,99264.25
2022-11-08T10:58:29.855Z,99264.97
2022-11-08T11:01:19.679Z,99259.44
2022-11-08T11:03:53.273Z,99265.09
2022-11-08T11:06:31.000Z,99250.69
2022-11-08T11:09:18.623Z,99251.09
2022-11-08T11:11:58.439Z,99247.72
2022-11-08T11:14:30.042Z,99250.88
2022-11-08T11:17:07.542Z,99247.16
2022-11-08T11:19:44.537Z,99240.50
2022-11-08T11:22:16.159Z,99244.28
2022-11-08T11:24:51.630Z,99233.97
2022-11-08T11:27:31.068Z,99247.22
2022-11-08T11:30:28.116Z,99250.06
2022-11-08T11:33:04.814Z,99246.63
2022-11-08T11:35:47.650Z,99249.84
2022-11-08T11:38:34.698Z,99238.47
2022-11-08T11:41:17.040Z,99237.88
2022-11-08T11:44:07.130Z,99235.16
2022-11-08T11:46:52.234Z,99229.75
2022-11-08T11:49:25.643Z,99217.00
2022-11-08T11:52:00.309Z,99224.25
2022-11-08T11:54:34.811Z,99213.56
2022-11-08T11:57:19.164Z,99221.03
2022-11-08T12:00:09.597Z,99215.03
2022-11-08T12:03:12.651Z,99212.50
2022-11-08T12:06:06.107Z,99218.47
2022-11-08T12:08:48.521Z,99214.00
2022-11-08T12:11:35.035Z,99201.81
2022-11-08T12:14:35.708Z,99190.19
2022-11-08T12:17:25.602Z,99200.22
2022-11-08T12:20:26.916Z,99189.53
2022-11-08T12:23:07.768Z,99189.16
2022-11-08T12:25:53.117Z,99187.69
2022-11-08T12:28:47.149Z,99186.34
2022-11-08T12:31:33.992Z,99181.59
2022-11-08T12:34:30.753Z,99174.97
2022-11-08T12:37:28.934Z,99169.84
2022-11-08T12:40:07.070Z,99185.00
2022-11-08T12:42:57.093Z,99167.19
2022-11-08T12:45:56.874Z,99160.28
2022-11-08T12:48:41.304Z,99164.19
2022-11-08T12:51:27.698Z,99174.16
2022-11-08T12:54:18.249Z,99161.91
2022-11-08T12:56:52.594Z,99162.72
2022-11-08T12:59:48.029Z,99172.06
2022-11-08T13:02:26.705Z,99163.06
2022-11-08T13:05:46.416Z,99162.06
2022-11-08T13:08:36.160Z,99166.81
2022-11-08T13:11:16.316Z,99163.78
2022-11-08T13:13:52.969Z,99165.22
2022-11-08T13:16:27.961Z,99158.59
2022-11-08T13:19:01.424Z,99154.97
2022-11-08T13:21:42.156Z,99160.22
2022-11-08T13:24:38.397Z,99159.59
2022-11-08T13:27:24.597Z,99149.88
2022-11-08T13:30:02.486Z,99157.16
2022-11-08T13:33:01.477Z,99148.78
2022-11-08T13:35:41.130Z,99143.19
2022-11-08T13:38:48.259Z,99145.56
2022-11-08T13:41:22.930Z,99143.13
2022-11-08T13:43:56.075Z,99152.41
2022-11-08T13:46:30.415Z,99142.38
2022-11-08T13:49:06.021Z,99146.41
2022-11-08T13:51:42.057Z,99138.22
2022-11-08T13:54:22.706Z,99127.91
2022-11-08T13:56:57.835Z,99125.44
2022-11-08T13:59:32.621Z,99132.06
2022-11-08T14:02:29.601Z,99134.34
2022-11-08T14:05:28.631Z,99135.16
2022-11-08T14:08:21.829Z,99126.41
2022-11-08T14:11:12.158Z,99133.25
2022-11-08T14:14:28.422Z,99131.28
2022-11-08T14:17:26.175Z,99124.81
2022-11-08T14:20:30.139Z,99122.44
2022-11-08T14:23:26.199Z,99121.47
2022-11-08T14:25:59.967Z,99128.34
2022-11-08T14:28:33.084Z,99119.00
2022-11-08T14:31:08.007Z,99124.59
2022-11-08T14:33:42.759Z,99128.94
2022-11-08T14:36:17.276Z,99124.19
2022-11-08T14:38:49.994Z,99126.09
2022-11-08T14:41:29.272Z,99120.38
2022-11-08T14:44:02.528Z,99119.22
2022-11-08T14:46:39.976Z,99122.34
2022-11-08T14:49:15.576Z,99119.91
2022-11-08T14:51:47.459Z,99118.91
2022-11-08T14:54:26.846Z,99121.41
2022-11-08T14:56:58.450Z,99117.53
2022-11-08T14:59:30.140Z,99118.81
2022-11-08T15:02:01.776Z,99103.63
2022-11-08T15:04:40.113Z,99109.19
2022-11-08T15:07:11.911Z,99101.88
2022-11-08T15:09:43.586Z,99106.19
2022-11-08T15:12:18.521Z,99116.31
2022-11-08T15:15:01.607Z,99114.69
2022-11-08T15:17:38.332Z,99101.81
2022-11-08T15:20:17.528Z,99109.81
2022-11-08T15:22:52.879Z,99104.91
2022-11-08T15:25:34.683Z,99107.19
2022-11-08T15:28:25.495Z,99112.97
2022-11-08T15:31:01.094Z,99116.03
2022-11-08T15:33:36.026Z,99110.50
2022-11-08T15:36:15.510Z,99109.06
2022-11-08T15:38:50.065Z,99104.56
2022-11-08T15:41:32.965Z,99102.53
2022-11-08T15:44:14.363Z,99106.38
2022-11-08T15:46:46.383Z,99098.41
2022-11-08T15:49:28.196Z,99099.03
2022-11-08T15:51:59.843Z,99102.50
2022-11-08T15:54:31.425Z,99108.63
2022-11-08T15:57:04.992Z,99113.75
2022-11-08T15:59:37.600Z,99113.72
2022-11-08T16:02:13.423Z,99112.06
2022-11-08T16:04:45.035Z,99118.22
2022-11-08T16:07:16.949Z,99116.34
2022-11-08T16:09:48.601Z,99115.50
2022-11-08T16:12:20.200Z,99121.44
2022-11-08T16:14:52.030Z,99120.38
2022-11-08T16:17:23.612Z,99117.91
2022-11-08T16:19:55.197Z,99121.31
2022-11-08T16:22:26.839Z,99121.09
2022-11-08T16:24:58.383Z,99119.44
2022-11-08T16:27:30.042Z,99123.69
2022-11-08T16:30:01.704Z,99119.56
2022-11-08T16:32:33.338Z,99114.78
2022-11-08T16:35:05.284Z,99116.16
2022-11-08T16:37:37.786Z,99108.97
2022-11-08T16:40:17.040Z,99114.47
2022-11-08T16:42:50.920Z,99114.59
2022-11-08T16:45:43.423Z,99121.28
2022-11-08T16:48:18.619Z,99122.00
2022-11-08T16:50:50.496Z,99127.63
2022-11-08T16:53:22.128Z,99126.94
2022-11-08T16:55:53.823Z,99135.22
2022-11-08T16:58:27.940Z,99136.13
2022-11-08T17:01:09.966Z,99136.06
2022-11-08T17:03:42.436Z,99138.03
2022-11-08T17:06:16.603Z,99138.59
2022-11-08T17:08:51.332Z,99126.47
2022-11-08T17:11:23.500Z,99137.81
2022-11-08T17:13:55.379Z,99136.75
2022-11-08T17:16:27.290Z,99137.50
2022-11-08T17:18:59.156Z,99139.06
2022-11-08T17:21:44.117Z,99143.28
2022-11-08T17:24:21.672Z,99151.78
2022-11-08T17:26:54.038Z,99148.03
2022-11-08T17:29:25.868Z,99155.34
2022-11-08T17:31:57.503Z,99146.31
2022-11-08T17:34:29.569Z,99146.06
2022-11-08T17:37:01.189Z,99146.78
2022-11-08T17:39:33.148Z,99158.72
2022-11-08T17:42:09.198Z,99151.34
2022-11-08T17:44:40.884Z,99155.38
2022-11-08T17:47:12.696Z,99156.94
2022-11-08T17:49:44.383Z,99156.44
2022-11-08T17:52:19.594Z,99156.84
2022-11-08T17:54:53.104Z,99157.00
2022-11-08T17:57:24.907Z,99157.56
2022-11-08T17:59:59.755Z,99163.03
2022-11-08T18:02:31.867Z,99160.56
2022-11-08T18:05:03.760Z,99153.44
2022-11-08T18:07:35.389Z,99157.72
2022-11-08T18:10:08.062Z,99158.56
2022-11-08T18:12:40.259Z,99162.84
2022-11-08T18:15:11.864Z,99160.03
2022-11-08T18:20:24.948Z,99164.78
2022-11-08T18:22:56.525Z,99161.47
2022-11-08T18:25:28.240Z,99159.81
2022-11-08T18:28:00.047Z,99167.25
2022-11-08T18:30:35.873Z,99168.06
2022-11-08T18:33:07.755Z,99171.72
2022-11-08T18:35:39.832Z,99167.25
2022-11-08T18:38:12.771Z,99169.25
2022-11-08T18:40:45.539Z,99175.72
2022-11-08T18:43:17.456Z,99169.13
2022-11-08T18:45:49.209Z,99182.09
2022-11-08T18:48:20.836Z,99182.09
2022-11-08T18:50:52.496Z,99185.41
2022-11-08T18:53:27.140Z,99180.09
2022-11-08T18:55:58.735Z,99182.09
2022-11-08T18:58:30.360Z,99192.41
2022-11-08T19:01:02.280Z,99200.53
2022-11-08T19:03:36.355Z,99201.50
2022-11-08T19:06:08.544Z,99199.84
2022-11-08T19:08:40.140Z,99199.00
2022-11-08T19:11:13.169Z,99208.97
2022-11-08T19:13:44.757Z,99204.41
2022-11-08T19:16:19.018Z,99204.13
2022-11-08T19:18:50.687Z,99201.19
2022-11-08T19:21:25.079Z,99203.50
2022-11-08T19:23:58.679Z,99199.41
2022-11-08T19:26:32.851Z,99210.00
2022-11-08T19:29:05.074Z,99205.59
2022-11-08T19:31:37.038Z,99211.06
2022-11-08T19:34:09.698Z,99214.22
2022-11-08T19:36:43.640Z,99216.25
2022-11-08T19:39:15.943Z,99218.25
2022-11-08T19:41:47.731Z,99211.47
2022-11-08T19:44:21.627Z,99212.81
2022-11-08T19:46:53.258Z,99211.72
2022-11-08T19:49:26.365Z,99214.88
2022-11-08T19:51:57.971Z,99220.69
2022-11-08T19:54:29.607Z,99219.06
2022-11-08T19:57:05.729Z,99216.28
2022-11-08T19:59:37.890Z,99215.78
2022-11-08T20:02:09.728Z,99218.97
2022-11-08T20:04:41.480Z,99217.69
2022-11-08T20:07:14.813Z,99213.38
2022-11-08T20:09:46.488Z,99220.66
2022-11-08T20:12:18.193Z,99211.13
2022-11-08T20:14:49.961Z,99218.09
2022-11-08T20:17:21.620Z,99216.81
2022-11-08T20:19:53.388Z,99218.13
2022-11-08T20:22:25.092Z,99217.66
2022-11-08T20:24:56.733Z,99221.47
2022-11-08T20:27:30.432Z,99217.34
2022-11-08T20:30:02.137Z,99214.88
2022-11-08T20:32:33.819Z,99219.53
2022-11-08T20:35:05.904Z,99218.72
2022-11-08T20:37:37.513Z,99225.13
2022-11-08T20:40:09.792Z,99227.31
2022-11-08T20:42:42.452Z,99218.88
2022-11-08T20:45:15.344Z,99219.56
2022-11-08T20:47:48.234Z,99207.72
2022-11-08T20:50:20.115Z,99209.69
2022-11-08T20:52:51.742Z,99207.25
2022-11-08T20:55:26.404Z,99209.06
2022-11-08T20:57:58.085Z,99215.16
2022-11-08T21:00:51.968Z,99218.09
2022-11-08T21:03:22.397Z,99221.41
2022-11-08T21:05:56.160Z,99216.81
2022-11-08T21:08:58.417Z,99222.94
2022-11-08T21:11:21.425Z,99219.59
2022-11-08T21:13:53.165Z,99224.72
2022-11-08T21:16:42.673Z,99224.88
2022-11-08T21:19:16.914Z,99224.91
2022-11-08T21:21:48.532Z,99223.41
2022-11-08T21:24:21.333Z,99224.59
2022-11-08T21:26:52.952Z,99221.13
2022-11-08T21:29:24.598Z,99223.09
2022-11-08T21:31:56.239Z,99219.16
2022-11-08T21:34:32.620Z,99222.94
2022-11-08T21:37:04.553Z,99214.56
2022-11-08T21:39:36.725Z,99220.00
2022-11-08T21:42:08.382Z,99214.72
2022-11-08T21:44:40.032Z,99215.88
2022-11-08T21:47:11.671Z,99230.22
2022-11-08T21:49:43.339Z,99230.72
2022-11-08T21:52:15.007Z,99233.53
2022-11-08T21:54:46.645Z,99235.31
2022-11-08T21:57:18.349Z,99236.66
2022-11-08T21:59:52.786Z,99235.84
2022-11-08T22:02:24.476Z,99238.31
2022-11-08T22:04:56.144Z,99235.19
2022-11-08T22:07:27.888Z,99238.97
2022-11-08T22:09:59.929Z,99240.63
2022-11-08T22:12:31.609Z,99243.25
2022-11-08T22:15:03.558Z,99238.13
2022-11-08T22:17:42.878Z,99240.78
2022-11-08T22:20:21.920Z,99242.59
2022-11-08T22:22:54.814Z,99252.47
2022-11-08T22:25:28.501Z,99249.81
2022-11-08T22:28:00.120Z,99256.94
2022-11-08T22:30:33.786Z,99254.31
2022-11-08T22:33:05.414Z,99244.06
2022-11-08T22:35:37.048Z,99243.41
2022-11-08T22:38:11.601Z,99234.34
2022-11-08T22:40:45.511Z,99234.53
2022-11-08T22:43:17.233Z,99242.06
2022-11-08T22:45:48.888Z,99234.16
2022-11-08T22:48:20.887Z,99231.72
2022-11-08T22:50:52.661Z,99240.75
2022-11-08T22:53:24.825Z,99241.75
2022-11-08T22:55:56.857Z,99236.81
2022-11-08T22:58:29.549Z,99240.28
2022-11-08T23:01:01.235Z,99235.81
2022-11-08T23:03:32.833Z,99235.97
2022-11-08T23:06:04.878Z,99243.22
2022-11-08T23:08:36.928Z,99234.47
2022-11-08T23:11:27.304Z,99233.66
2022-11-08T23:14:17.671Z,99234.19
2022-11-08T23:16:49.315Z,99238.28
2022-11-08T23:19:41.781Z,99235.97
2022-11-08T23:22:34.837Z,99235.66
2022-11-08T23:25:06.882Z,99228.91
2022-11-08T23:27:57.211Z,99220.47
2022-11-08T23:30:47.721Z,99222.63
2022-11-08T23:33:19.508Z,99222.63
2022-11-08T23:36:16.904Z,99224.44
2022-11-08T23:38:48.759Z,99217.50
2022-11-08T23:41:39.219Z,99215.84
2022-11-08T23:44:26.725Z,99210.78
2022-11-08T23:47:00.852Z,99204.53
2022-11-08T23:49:32.487Z,99209.94
2022-11-08T23:52:04.264Z,99204.16
2022-11-08T23:54:35.841Z,99202.03
2022-11-08T23:57:07.428Z,99208.28
2022-11-08T23:59:39.009Z,99209.09
